KMDD/MDD METAR and TAF weather

Enter ICAO airport designator
Station Type Date Time Source
KMDD METAR 2019/12/12 16:55 UTC NOAA

KMDD 121655Z AUTO 24008KT 10SM CLR 10/05 A3018 RMK AO2 T00980047


Station Type Date Time Source
KMDD Decoded METAR 2019/12/12 16:55 UTC NOAA

Midland, Midland Airpark, TX, United States (KMDD) 32-02-11N 102-06-03W
Dec 12, 2019 - 11:55 AM EST / 2019.12.12 1655 UTC
Wind: from the WSW (240 degrees) at 9 MPH (8 KT):0
Visibility: 10 mile(s):0
Sky conditions: clear
Temperature: 49.6 F (9.8 C)
Dew Point: 40.5 F (4.7 C)
Relative Humidity: 70%
Pressure (altimeter): 30.18 in. Hg (1022 hPa)
ob: KMDD 121655Z AUTO 24008KT 10SM CLR 10/05 A3018 RMK AO2 T00980047
cycle: 17

Station Type Date Time Source
KMDD TAF UTC NOAA

Error!

Example: see airport list